sensor_id;sensor_type;location;lat;lon;timestamp;P1;durP1;ratioP1;P2;durP2;ratioP2
10657;SDS011;5377;43.276;26.930;2023-09-18T00:00:23;6.80;;;4.10;;
10657;SDS011;5377;43.276;26.930;2023-09-18T00:02:50;4.95;;;3.22;;
10657;SDS011;5377;43.276;26.930;2023-09-18T00:05:17;4.43;;;3.45;;
10657;SDS011;5377;43.276;26.930;2023-09-18T00:07:44;6.18;;;3.67;;
10657;SDS011;5377;43.276;26.930;2023-09-18T00:10:11;3.20;;;3.00;;
10657;SDS011;5377;43.276;26.930;2023-09-18T00:12:38;4.03;;;3.67;;
10657;SDS011;5377;43.276;26.930;2023-09-18T00:15:07;4.03;;;3.72;;
10657;SDS011;5377;43.276;26.930;2023-09-18T00:17:35;3.95;;;3.40;;
10657;SDS011;5377;43.276;26.930;2023-09-18T00:20:03;4.03;;;3.30;;
10657;SDS011;5377;43.276;26.930;2023-09-18T00:22:32;5.10;;;3.58;;
10657;SDS011;5377;43.276;26.930;2023-09-18T00:24:58;7.22;;;3.92;;
10657;SDS011;5377;43.276;26.930;2023-09-18T00:27:26;3.88;;;3.60;;
10657;SDS011;5377;43.276;26.930;2023-09-18T00:29:53;5.60;;;3.72;;
10657;SDS011;5377;43.276;26.930;2023-09-18T00:32:21;3.33;;;3.03;;
10657;SDS011;5377;43.276;26.930;2023-09-18T00:34:48;4.05;;;3.30;;
10657;SDS011;5377;43.276;26.930;2023-09-18T00:37:15;5.25;;;3.65;;
10657;SDS011;5377;43.276;26.930;2023-09-18T00:39:42;4.70;;;3.35;;
10657;SDS011;5377;43.276;26.930;2023-09-18T00:42:09;3.75;;;3.45;;
10657;SDS011;5377;43.276;26.930;2023-09-18T00:44:38;6.22;;;4.20;;
10657;SDS011;5377;43.276;26.930;2023-09-18T00:47:06;4.63;;;3.83;;
10657;SDS011;5377;43.276;26.930;2023-09-18T00:49:35;6.32;;;4.53;;
10657;SDS011;5377;43.276;26.930;2023-09-18T00:52:03;3.90;;;3.53;;
10657;SDS011;5377;43.276;26.930;2023-09-18T00:54:32;7.07;;;3.97;;
10657;SDS011;5377;43.276;26.930;2023-09-18T00:57:00;4.03;;;3.60;;
10657;SDS011;5377;43.276;26.930;2023-09-18T00:59:27;3.63;;;3.30;;
10657;SDS011;5377;43.276;26.930;2023-09-18T01:01:54;4.88;;;3.75;;
10657;SDS011;5377;43.276;26.930;2023-09-18T01:04:21;5.32;;;3.42;;
10657;SDS011;5377;43.276;26.930;2023-09-18T01:06:51;4.95;;;3.75;;
10657;SDS011;5377;43.276;26.930;2023-09-18T01:09:21;3.88;;;3.28;;
10657;SDS011;5377;43.276;26.930;2023-09-18T01:11:50;4.13;;;3.80;;
10657;SDS011;5377;43.276;26.930;2023-09-18T01:14:29;6.07;;;4.00;;
10657;SDS011;5377;43.276;26.930;2023-09-18T01:17:00;5.10;;;4.55;;
10657;SDS011;5377;43.276;26.930;2023-09-18T01:19:36;4.93;;;3.85;;
10657;SDS011;5377;43.276;26.930;2023-09-18T01:22:12;6.93;;;3.55;;
10657;SDS011;5377;43.276;26.930;2023-09-18T01:24:41;6.38;;;4.00;;
10657;SDS011;5377;43.276;26.930;2023-09-18T01:27:08;4.40;;;4.00;;
10657;SDS011;5377;43.276;26.930;2023-09-18T01:29:40;6.40;;;3.95;;
10657;SDS011;5377;43.276;26.930;2023-09-18T01:32:07;4.57;;;4.13;;
10657;SDS011;5377;43.276;26.930;2023-09-18T01:34:34;4.38;;;3.85;;
10657;SDS011;5377;43.276;26.930;2023-09-18T01:37:04;5.05;;;4.22;;
10657;SDS011;5377;43.276;26.930;2023-09-18T01:39:33;5.68;;;3.83;;
10657;SDS011;5377;43.276;26.930;2023-09-18T01:42:04;4.50;;;4.05;;
10657;SDS011;5377;43.276;26.930;2023-09-18T01:44:31;5.10;;;4.60;;
10657;SDS011;5377;43.276;26.930;2023-09-18T01:47:00;4.10;;;3.80;;
10657;SDS011;5377;43.276;26.930;2023-09-18T01:49:29;4.85;;;4.32;;
10657;SDS011;5377;43.276;26.930;2023-09-18T01:51:56;4.85;;;4.40;;
10657;SDS011;5377;43.276;26.930;2023-09-18T01:54:23;6.95;;;4.25;;
10657;SDS011;5377;43.276;26.930;2023-09-18T01:56:50;4.72;;;3.97;;
10657;SDS011;5377;43.276;26.930;2023-09-18T01:59:19;5.70;;;4.63;;
10657;SDS011;5377;43.276;26.930;2023-09-18T02:01:47;4.38;;;3.85;;
10657;SDS011;5377;43.276;26.930;2023-09-18T02:04:15;6.10;;;4.75;;
10657;SDS011;5377;43.276;26.930;2023-09-18T02:06:42;6.72;;;4.28;;
10657;SDS011;5377;43.276;26.930;2023-09-18T02:09:09;11.75;;;8.48;;
10657;SDS011;5377;43.276;26.930;2023-09-18T02:11:38;8.18;;;5.72;;
10657;SDS011;5377;43.276;26.930;2023-09-18T02:14:05;8.57;;;6.65;;
10657;SDS011;5377;43.276;26.930;2023-09-18T02:16:34;8.00;;;6.28;;
10657;SDS011;5377;43.276;26.930;2023-09-18T02:19:01;6.50;;;5.80;;
10657;SDS011;5377;43.276;26.930;2023-09-18T02:21:28;5.75;;;5.15;;
10657;SDS011;5377;43.276;26.930;2023-09-18T02:23:55;6.80;;;4.95;;
10657;SDS011;5377;43.276;26.930;2023-09-18T02:26:23;6.05;;;4.97;;
10657;SDS011;5377;43.276;26.930;2023-09-18T02:28:51;6.63;;;4.80;;
10657;SDS011;5377;43.276;26.930;2023-09-18T02:31:17;5.90;;;5.30;;
10657;SDS011;5377;43.276;26.930;2023-09-18T02:33:45;6.53;;;4.90;;
10657;SDS011;5377;43.276;26.930;2023-09-18T02:36:12;4.55;;;4.15;;
10657;SDS011;5377;43.276;26.930;2023-09-18T02:38:39;4.35;;;3.83;;
10657;SDS011;5377;43.276;26.930;2023-09-18T02:41:06;5.18;;;4.78;;
10657;SDS011;5377;43.276;26.930;2023-09-18T02:43:40;6.50;;;4.57;;
10657;SDS011;5377;43.276;26.930;2023-09-18T02:46:07;5.25;;;4.20;;
10657;SDS011;5377;43.276;26.930;2023-09-18T02:48:35;7.53;;;4.05;;
10657;SDS011;5377;43.276;26.930;2023-09-18T02:51:03;6.03;;;4.43;;
10657;SDS011;5377;43.276;26.930;2023-09-18T02:53:30;7.65;;;4.72;;
10657;SDS011;5377;43.276;26.930;2023-09-18T02:55:57;4.70;;;4.25;;
10657;SDS011;5377;43.276;26.930;2023-09-18T02:58:25;5.53;;;4.57;;
10657;SDS011;5377;43.276;26.930;2023-09-18T03:00:54;5.80;;;4.25;;
10657;SDS011;5377;43.276;26.930;2023-09-18T03:03:22;4.95;;;4.35;;
10657;SDS011;5377;43.276;26.930;2023-09-18T03:05:49;6.57;;;5.13;;
10657;SDS011;5377;43.276;26.930;2023-09-18T03:08:17;5.70;;;5.10;;
10657;SDS011;5377;43.276;26.930;2023-09-18T03:10:44;5.82;;;4.68;;
10657;SDS011;5377;43.276;26.930;2023-09-18T03:13:12;6.32;;;4.40;;
10657;SDS011;5377;43.276;26.930;2023-09-18T03:15:44;5.75;;;5.25;;
10657;SDS011;5377;43.276;26.930;2023-09-18T03:18:12;5.20;;;4.57;;
10657;SDS011;5377;43.276;26.930;2023-09-18T03:20:39;5.82;;;5.25;;
10657;SDS011;5377;43.276;26.930;2023-09-18T03:23:06;10.20;;;6.78;;
10657;SDS011;5377;43.276;26.930;2023-09-18T03:25:34;13.88;;;10.98;;
10657;SDS011;5377;43.276;26.930;2023-09-18T03:28:02;5.80;;;4.88;;
10657;SDS011;5377;43.276;26.930;2023-09-18T03:30:30;9.98;;;6.88;;
10657;SDS011;5377;43.276;26.930;2023-09-18T03:32:56;8.07;;;6.88;;
10657;SDS011;5377;43.276;26.930;2023-09-18T03:35:23;6.43;;;5.47;;
10657;SDS011;5377;43.276;26.930;2023-09-18T03:37:51;8.63;;;7.10;;
10657;SDS011;5377;43.276;26.930;2023-09-18T03:40:19;5.63;;;4.80;;
10657;SDS011;5377;43.276;26.930;2023-09-18T03:42:48;7.78;;;5.85;;
10657;SDS011;5377;43.276;26.930;2023-09-18T03:45:15;6.65;;;5.93;;
10657;SDS011;5377;43.276;26.930;2023-09-18T03:47:44;6.55;;;5.95;;
10657;SDS011;5377;43.276;26.930;2023-09-18T03:50:11;6.00;;;5.35;;
10657;SDS011;5377;43.276;26.930;2023-09-18T03:52:38;6.93;;;5.70;;
10657;SDS011;5377;43.276;26.930;2023-09-18T03:55:05;7.80;;;5.43;;
10657;SDS011;5377;43.276;26.930;2023-09-18T03:57:33;6.43;;;5.80;;
10657;SDS011;5377;43.276;26.930;2023-09-18T04:00:03;6.90;;;5.18;;
10657;SDS011;5377;43.276;26.930;2023-09-18T04:02:32;6.43;;;5.45;;
10657;SDS011;5377;43.276;26.930;2023-09-18T04:05:00;5.88;;;5.35;;
10657;SDS011;5377;43.276;26.930;2023-09-18T04:07:28;11.75;;;5.03;;
10657;SDS011;5377;43.276;26.930;2023-09-18T04:09:55;5.25;;;4.78;;
10657;SDS011;5377;43.276;26.930;2023-09-18T04:12:21;9.07;;;4.53;;
10657;SDS011;5377;43.276;26.930;2023-09-18T04:14:48;7.55;;;6.15;;
10657;SDS011;5377;43.276;26.930;2023-09-18T04:17:17;8.18;;;5.55;;
10657;SDS011;5377;43.276;26.930;2023-09-18T04:19:46;5.82;;;5.25;;
10657;SDS011;5377;43.276;26.930;2023-09-18T04:22:13;6.65;;;4.88;;
10657;SDS011;5377;43.276;26.930;2023-09-18T04:24:40;10.05;;;8.25;;
10657;SDS011;5377;43.276;26.930;2023-09-18T04:27:07;11.15;;;8.45;;
10657;SDS011;5377;43.276;26.930;2023-09-18T04:29:33;11.43;;;5.65;;
10657;SDS011;5377;43.276;26.930;2023-09-18T04:32:01;12.73;;;6.65;;
10657;SDS011;5377;43.276;26.930;2023-09-18T04:34:30;8.57;;;6.35;;
10657;SDS011;5377;43.276;26.930;2023-09-18T04:36:57;7.53;;;5.38;;
10657;SDS011;5377;43.276;26.930;2023-09-18T04:39:24;6.55;;;5.45;;
10657;SDS011;5377;43.276;26.930;2023-09-18T04:41:51;14.38;;;5.88;;
10657;SDS011;5377;43.276;26.930;2023-09-18T04:44:17;7.18;;;5.40;;
10657;SDS011;5377;43.276;26.930;2023-09-18T04:46:44;12.52;;;6.93;;
10657;SDS011;5377;43.276;26.930;2023-09-18T04:49:11;10.32;;;6.32;;
10657;SDS011;5377;43.276;26.930;2023-09-18T04:51:46;13.52;;;6.53;;
10657;SDS011;5377;43.276;26.930;2023-09-18T04:54:13;12.30;;;5.82;;
10657;SDS011;5377;43.276;26.930;2023-09-18T04:56:40;13.80;;;5.70;;
10657;SDS011;5377;43.276;26.930;2023-09-18T04:59:18;12.18;;;6.93;;
10657;SDS011;5377;43.276;26.930;2023-09-18T05:01:45;14.93;;;6.28;;
10657;SDS011;5377;43.276;26.930;2023-09-18T05:04:12;13.50;;;6.38;;
10657;SDS011;5377;43.276;26.930;2023-09-18T05:06:39;9.15;;;5.30;;
10657;SDS011;5377;43.276;26.930;2023-09-18T05:12:29;9.05;;;6.32;;
10657;SDS011;5377;43.276;26.930;2023-09-18T05:15:01;26.58;;;18.38;;
10657;SDS011;5377;43.276;26.930;2023-09-18T05:17:40;8.90;;;6.00;;
10657;SDS011;5377;43.276;26.930;2023-09-18T05:20:08;9.57;;;5.70;;
10657;SDS011;5377;43.276;26.930;2023-09-18T05:22:38;16.00;;;8.18;;
10657;SDS011;5377;43.276;26.930;2023-09-18T05:27:37;9.60;;;5.47;;
10657;SDS011;5377;43.276;26.930;2023-09-18T05:30:10;14.43;;;6.78;;
10657;SDS011;5377;43.276;26.930;2023-09-18T05:32:38;15.93;;;7.55;;
10657;SDS011;5377;43.276;26.930;2023-09-18T05:35:05;15.02;;;6.15;;
10657;SDS011;5377;43.276;26.930;2023-09-18T05:37:35;9.15;;;5.65;;
10657;SDS011;5377;43.276;26.930;2023-09-18T05:40:02;13.18;;;6.25;;
10657;SDS011;5377;43.276;26.930;2023-09-18T05:42:30;12.73;;;6.60;;
10657;SDS011;5377;43.276;26.930;2023-09-18T05:44:58;17.13;;;7.03;;
10657;SDS011;5377;43.276;26.930;2023-09-18T05:47:25;11.82;;;6.28;;
10657;SDS011;5377;43.276;26.930;2023-09-18T05:49:53;3.97;;;3.67;;
10657;SDS011;5377;43.276;26.930;2023-09-18T05:52:20;6.68;;;4.78;;
10657;SDS011;5377;43.276;26.930;2023-09-18T05:54:48;12.02;;;6.20;;
10657;SDS011;5377;43.276;26.930;2023-09-18T05:57:20;26.98;;;14.07;;
10657;SDS011;5377;43.276;26.930;2023-09-18T05:59:51;14.18;;;8.48;;
10657;SDS011;5377;43.276;26.930;2023-09-18T06:02:20;12.40;;;5.68;;
10657;SDS011;5377;43.276;26.930;2023-09-18T06:04:47;19.38;;;7.68;;
10657;SDS011;5377;43.276;26.930;2023-09-18T06:07:13;10.60;;;5.90;;
10657;SDS011;5377;43.276;26.930;2023-09-18T06:09:40;16.70;;;6.35;;
10657;SDS011;5377;43.276;26.930;2023-09-18T06:12:07;11.93;;;5.40;;
10657;SDS011;5377;43.276;26.930;2023-09-18T06:14:35;6.45;;;5.60;;
10657;SDS011;5377;43.276;26.930;2023-09-18T06:17:03;6.95;;;5.03;;
10657;SDS011;5377;43.276;26.930;2023-09-18T06:19:32;12.13;;;5.22;;
10657;SDS011;5377;43.276;26.930;2023-09-18T06:22:00;18.08;;;7.05;;
10657;SDS011;5377;43.276;26.930;2023-09-18T06:24:27;11.27;;;6.38;;
10657;SDS011;5377;43.276;26.930;2023-09-18T06:26:54;12.85;;;5.65;;
10657;SDS011;5377;43.276;26.930;2023-09-18T06:29:21;14.85;;;5.95;;
10657;SDS011;5377;43.276;26.930;2023-09-18T06:31:49;6.15;;;4.82;;
10657;SDS011;5377;43.276;26.930;2023-09-18T06:34:16;12.15;;;5.32;;
10657;SDS011;5377;43.276;26.930;2023-09-18T06:36:44;7.25;;;6.13;;
10657;SDS011;5377;43.276;26.930;2023-09-18T06:39:11;11.05;;;5.63;;
10657;SDS011;5377;43.276;26.930;2023-09-18T06:41:38;14.07;;;6.30;;
10657;SDS011;5377;43.276;26.930;2023-09-18T06:44:05;12.80;;;7.28;;
10657;SDS011;5377;43.276;26.930;2023-09-18T06:46:32;5.55;;;4.93;;
10657;SDS011;5377;43.276;26.930;2023-09-18T06:48:59;7.45;;;5.93;;
10657;SDS011;5377;43.276;26.930;2023-09-18T06:51:26;8.65;;;6.03;;
10657;SDS011;5377;43.276;26.930;2023-09-18T06:53:54;16.80;;;7.70;;
10657;SDS011;5377;43.276;26.930;2023-09-18T06:56:22;22.98;;;9.93;;
10657;SDS011;5377;43.276;26.930;2023-09-18T06:58:49;12.18;;;6.10;;
10657;SDS011;5377;43.276;26.930;2023-09-18T07:01:16;7.80;;;6.75;;
10657;SDS011;5377;43.276;26.930;2023-09-18T07:03:43;15.43;;;6.93;;
10657;SDS011;5377;43.276;26.930;2023-09-18T07:06:12;13.18;;;7.20;;
10657;SDS011;5377;43.276;26.930;2023-09-18T07:08:41;7.05;;;6.10;;
10657;SDS011;5377;43.276;26.930;2023-09-18T07:11:09;12.52;;;7.70;;
10657;SDS011;5377;43.276;26.930;2023-09-18T07:13:37;8.13;;;6.13;;
10657;SDS011;5377;43.276;26.930;2023-09-18T07:16:03;11.02;;;7.25;;
10657;SDS011;5377;43.276;26.930;2023-09-18T07:18:32;23.38;;;9.35;;
10657;SDS011;5377;43.276;26.930;2023-09-18T07:20:58;9.30;;;6.85;;
10657;SDS011;5377;43.276;26.930;2023-09-18T07:23:25;8.15;;;6.53;;
10657;SDS011;5377;43.276;26.930;2023-09-18T07:25:52;7.88;;;6.75;;
10657;SDS011;5377;43.276;26.930;2023-09-18T07:28:20;7.30;;;6.43;;
10657;SDS011;5377;43.276;26.930;2023-09-18T07:30:47;9.65;;;6.60;;
10657;SDS011;5377;43.276;26.930;2023-09-18T07:33:14;9.65;;;6.70;;
10657;SDS011;5377;43.276;26.930;2023-09-18T07:35:44;10.10;;;7.43;;
10657;SDS011;5377;43.276;26.930;2023-09-18T07:38:12;8.40;;;7.60;;
10657;SDS011;5377;43.276;26.930;2023-09-18T07:40:39;8.02;;;6.35;;
10657;SDS011;5377;43.276;26.930;2023-09-18T07:43:05;7.43;;;5.53;;
10657;SDS011;5377;43.276;26.930;2023-09-18T07:45:34;9.95;;;6.07;;
10657;SDS011;5377;43.276;26.930;2023-09-18T07:48:01;8.90;;;5.68;;
10657;SDS011;5377;43.276;26.930;2023-09-18T07:50:28;7.18;;;6.13;;
10657;SDS011;5377;43.276;26.930;2023-09-18T07:52:57;7.53;;;5.80;;
10657;SDS011;5377;43.276;26.930;2023-09-18T07:55:23;7.15;;;4.47;;
10657;SDS011;5377;43.276;26.930;2023-09-18T07:57:51;6.00;;;4.43;;
10657;SDS011;5377;43.276;26.930;2023-09-18T08:00:17;5.28;;;4.55;;
10657;SDS011;5377;43.276;26.930;2023-09-18T08:02:49;4.40;;;3.95;;
10657;SDS011;5377;43.276;26.930;2023-09-18T08:05:19;4.90;;;4.50;;
10657;SDS011;5377;43.276;26.930;2023-09-18T08:07:46;6.80;;;4.55;;
10657;SDS011;5377;43.276;26.930;2023-09-18T08:10:14;7.97;;;4.40;;
10657;SDS011;5377;43.276;26.930;2023-09-18T08:12:41;7.18;;;4.68;;
10657;SDS011;5377;43.276;26.930;2023-09-18T08:15:08;5.90;;;4.80;;
10657;SDS011;5377;43.276;26.930;2023-09-18T08:17:36;5.05;;;4.05;;
10657;SDS011;5377;43.276;26.930;2023-09-18T08:20:04;4.53;;;4.13;;
10657;SDS011;5377;43.276;26.930;2023-09-18T08:22:37;8.05;;;4.88;;
10657;SDS011;5377;43.276;26.930;2023-09-18T08:25:05;4.65;;;4.13;;
10657;SDS011;5377;43.276;26.930;2023-09-18T08:27:33;3.97;;;3.70;;
10657;SDS011;5377;43.276;26.930;2023-09-18T08:30:00;3.75;;;3.42;;
10657;SDS011;5377;43.276;26.930;2023-09-18T08:32:27;7.50;;;3.85;;
10657;SDS011;5377;43.276;26.930;2023-09-18T08:34:55;7.93;;;4.90;;
10657;SDS011;5377;43.276;26.930;2023-09-18T08:37:25;5.18;;;4.78;;
10657;SDS011;5377;43.276;26.930;2023-09-18T08:39:52;4.38;;;4.03;;
10657;SDS011;5377;43.276;26.930;2023-09-18T08:42:19;9.15;;;4.18;;
10657;SDS011;5377;43.276;26.930;2023-09-18T08:44:48;8.80;;;4.38;;
10657;SDS011;5377;43.276;26.930;2023-09-18T08:47:17;8.05;;;4.22;;
10657;SDS011;5377;43.276;26.930;2023-09-18T08:49:44;7.50;;;4.32;;
10657;SDS011;5377;43.276;26.930;2023-09-18T08:52:14;4.70;;;3.88;;
10657;SDS011;5377;43.276;26.930;2023-09-18T08:54:43;4.75;;;3.80;;
10657;SDS011;5377;43.276;26.930;2023-09-18T08:57:12;3.50;;;2.83;;
10657;SDS011;5377;43.276;26.930;2023-09-18T08:59:39;10.20;;;5.15;;
10657;SDS011;5377;43.276;26.930;2023-09-18T09:02:07;4.28;;;3.83;;
10657;SDS011;5377;43.276;26.930;2023-09-18T09:04:36;4.50;;;2.92;;
10657;SDS011;5377;43.276;26.930;2023-09-18T09:07:03;4.72;;;3.17;;
10657;SDS011;5377;43.276;26.930;2023-09-18T09:09:31;2.95;;;2.78;;
10657;SDS011;5377;43.276;26.930;2023-09-18T09:11:59;6.78;;;3.53;;
10657;SDS011;5377;43.276;26.930;2023-09-18T09:14:26;6.78;;;3.25;;
10657;SDS011;5377;43.276;26.930;2023-09-18T09:16:54;3.28;;;2.97;;
10657;SDS011;5377;43.276;26.930;2023-09-18T09:19:31;3.47;;;3.17;;
10657;SDS011;5377;43.276;26.930;2023-09-18T09:22:02;4.03;;;3.63;;
10657;SDS011;5377;43.276;26.930;2023-09-18T09:24:38;4.03;;;3.72;;
10657;SDS011;5377;43.276;26.930;2023-09-18T09:27:08;6.30;;;3.63;;
10657;SDS011;5377;43.276;26.930;2023-09-18T09:29:35;8.10;;;3.70;;
10657;SDS011;5377;43.276;26.930;2023-09-18T09:32:12;6.45;;;3.30;;
10657;SDS011;5377;43.276;26.930;2023-09-18T09:34:41;3.38;;;3.10;;
10657;SDS011;5377;43.276;26.930;2023-09-18T09:37:08;3.63;;;2.90;;
10657;SDS011;5377;43.276;26.930;2023-09-18T09:39:45;6.30;;;3.20;;
10657;SDS011;5377;43.276;26.930;2023-09-18T09:42:16;11.15;;;3.50;;
10657;SDS011;5377;43.276;26.930;2023-09-18T09:44:55;7.18;;;4.18;;
10657;SDS011;5377;43.276;26.930;2023-09-18T09:47:27;4.05;;;3.08;;
10657;SDS011;5377;43.276;26.930;2023-09-18T09:49:57;6.30;;;3.28;;
10657;SDS011;5377;43.276;26.930;2023-09-18T09:52:24;6.43;;;3.53;;
10657;SDS011;5377;43.276;26.930;2023-09-18T09:54:51;9.38;;;3.55;;
10657;SDS011;5377;43.276;26.930;2023-09-18T09:57:19;7.90;;;3.20;;
10657;SDS011;5377;43.276;26.930;2023-09-18T09:59:46;4.88;;;2.75;;
10657;SDS011;5377;43.276;26.930;2023-09-18T10:02:13;3.65;;;2.90;;
10657;SDS011;5377;43.276;26.930;2023-09-18T10:04:44;8.65;;;3.80;;
10657;SDS011;5377;43.276;26.930;2023-09-18T10:07:13;5.03;;;2.78;;
10657;SDS011;5377;43.276;26.930;2023-09-18T10:09:43;4.53;;;2.33;;
10657;SDS011;5377;43.276;26.930;2023-09-18T10:12:12;3.13;;;2.88;;
10657;SDS011;5377;43.276;26.930;2023-09-18T10:14:46;3.28;;;2.33;;
10657;SDS011;5377;43.276;26.930;2023-09-18T10:17:16;4.10;;;2.75;;
10657;SDS011;5377;43.276;26.930;2023-09-18T10:19:45;3.35;;;2.30;;
10657;SDS011;5377;43.276;26.930;2023-09-18T10:22:21;3.28;;;2.10;;
10657;SDS011;5377;43.276;26.930;2023-09-18T10:24:59;3.33;;;2.65;;
10657;SDS011;5377;43.276;26.930;2023-09-18T10:27:34;5.63;;;3.00;;
10657;SDS011;5377;43.276;26.930;2023-09-18T10:30:06;2.97;;;2.25;;
10657;SDS011;5377;43.276;26.930;2023-09-18T10:32:36;2.83;;;2.60;;
10657;SDS011;5377;43.276;26.930;2023-09-18T10:35:06;3.35;;;2.00;;
10657;SDS011;5377;43.276;26.930;2023-09-18T10:37:34;5.07;;;2.55;;
10657;SDS011;5377;43.276;26.930;2023-09-18T10:40:04;2.58;;;2.10;;
10657;SDS011;5377;43.276;26.930;2023-09-18T10:42:33;5.82;;;3.00;;
10657;SDS011;5377;43.276;26.930;2023-09-18T10:45:01;3.05;;;2.03;;
10657;SDS011;5377;43.276;26.930;2023-09-18T10:47:31;4.30;;;2.20;;
10657;SDS011;5377;43.276;26.930;2023-09-18T10:50:00;4.10;;;2.22;;
10657;SDS011;5377;43.276;26.930;2023-09-18T10:52:27;2.00;;;1.80;;
10657;SDS011;5377;43.276;26.930;2023-09-18T10:54:53;4.32;;;2.15;;
10657;SDS011;5377;43.276;26.930;2023-09-18T10:57:20;5.13;;;2.90;;
10657;SDS011;5377;43.276;26.930;2023-09-18T10:59:47;2.95;;;2.40;;
10657;SDS011;5377;43.276;26.930;2023-09-18T11:02:14;7.07;;;3.33;;
10657;SDS011;5377;43.276;26.930;2023-09-18T11:04:43;2.50;;;2.10;;
10657;SDS011;5377;43.276;26.930;2023-09-18T11:07:19;2.08;;;1.77;;
10657;SDS011;5377;43.276;26.930;2023-09-18T11:09:46;3.88;;;2.38;;
10657;SDS011;5377;43.276;26.930;2023-09-18T11:12:14;1.98;;;1.55;;
10657;SDS011;5377;43.276;26.930;2023-09-18T11:14:43;3.05;;;2.88;;
10657;SDS011;5377;43.276;26.930;2023-09-18T11:17:30;2.15;;;1.60;;
10657;SDS011;5377;43.276;26.930;2023-09-18T11:20:07;4.97;;;2.28;;
10657;SDS011;5377;43.276;26.930;2023-09-18T11:22:37;4.65;;;2.28;;
10657;SDS011;5377;43.276;26.930;2023-09-18T11:28:04;5.03;;;2.67;;
10657;SDS011;5377;43.276;26.930;2023-09-18T11:30:32;2.55;;;1.55;;
10657;SDS011;5377;43.276;26.930;2023-09-18T11:33:01;4.35;;;2.25;;
10657;SDS011;5377;43.276;26.930;2023-09-18T11:35:30;2.83;;;1.67;;
10657;SDS011;5377;43.276;26.930;2023-09-18T11:38:05;2.55;;;1.20;;
10657;SDS011;5377;43.276;26.930;2023-09-18T11:40:34;1.92;;;1.45;;
10657;SDS011;5377;43.276;26.930;2023-09-18T11:43:20;1.35;;;1.27;;
10657;SDS011;5377;43.276;26.930;2023-09-18T11:45:52;5.03;;;1.55;;
10657;SDS011;5377;43.276;26.930;2023-09-18T11:48:20;2.70;;;1.90;;
10657;SDS011;5377;43.276;26.930;2023-09-18T11:50:50;4.50;;;2.00;;
10657;SDS011;5377;43.276;26.930;2023-09-18T11:53:19;2.28;;;2.08;;
10657;SDS011;5377;43.276;26.930;2023-09-18T11:55:46;4.20;;;2.45;;
10657;SDS011;5377;43.276;26.930;2023-09-18T11:58:13;2.05;;;1.15;;
10657;SDS011;5377;43.276;26.930;2023-09-18T12:00:40;2.42;;;1.08;;
10657;SDS011;5377;43.276;26.930;2023-09-18T12:03:13;2.63;;;1.40;;
10657;SDS011;5377;43.276;26.930;2023-09-18T12:05:43;3.50;;;1.13;;
10657;SDS011;5377;43.276;26.930;2023-09-18T12:08:12;4.80;;;2.00;;
10657;SDS011;5377;43.276;26.930;2023-09-18T12:10:39;2.50;;;0.98;;
10657;SDS011;5377;43.276;26.930;2023-09-18T12:13:06;3.22;;;1.35;;
10657;SDS011;5377;43.276;26.930;2023-09-18T12:15:33;10.13;;;2.05;;
10657;SDS011;5377;43.276;26.930;2023-09-18T12:18:04;2.35;;;1.08;;
10657;SDS011;5377;43.276;26.930;2023-09-18T12:20:32;2.88;;;1.33;;
10657;SDS011;5377;43.276;26.930;2023-09-18T12:22:59;1.60;;;0.95;;
10657;SDS011;5377;43.276;26.930;2023-09-18T12:25:29;2.60;;;1.20;;
10657;SDS011;5377;43.276;26.930;2023-09-18T12:27:55;1.77;;;1.38;;
10657;SDS011;5377;43.276;26.930;2023-09-18T12:30:24;1.40;;;1.30;;
10657;SDS011;5377;43.276;26.930;2023-09-18T12:32:51;2.65;;;1.42;;
10657;SDS011;5377;43.276;26.930;2023-09-18T12:35:19;4.57;;;1.98;;
10657;SDS011;5377;43.276;26.930;2023-09-18T12:37:45;2.80;;;1.13;;
10657;SDS011;5377;43.276;26.930;2023-09-18T12:40:23;1.50;;;1.20;;
10657;SDS011;5377;43.276;26.930;2023-09-18T12:42:53;1.30;;;1.17;;
10657;SDS011;5377;43.276;26.930;2023-09-18T12:45:21;2.63;;;1.33;;
10657;SDS011;5377;43.276;26.930;2023-09-18T12:47:49;1.45;;;1.00;;
10657;SDS011;5377;43.276;26.930;2023-09-18T12:50:17;3.42;;;1.30;;
10657;SDS011;5377;43.276;26.930;2023-09-18T12:52:44;1.50;;;1.30;;
10657;SDS011;5377;43.276;26.930;2023-09-18T12:55:20;2.00;;;1.10;;
10657;SDS011;5377;43.276;26.930;2023-09-18T12:57:49;4.47;;;3.80;;
10657;SDS011;5377;43.276;26.930;2023-09-18T13:00:18;1.77;;;1.40;;
10657;SDS011;5377;43.276;26.930;2023-09-18T13:02:47;2.88;;;1.50;;
10657;SDS011;5377;43.276;26.930;2023-09-18T13:05:19;2.40;;;1.35;;
10657;SDS011;5377;43.276;26.930;2023-09-18T13:07:46;5.30;;;1.83;;
10657;SDS011;5377;43.276;26.930;2023-09-18T13:10:13;4.97;;;1.83;;
10657;SDS011;5377;43.276;26.930;2023-09-18T13:12:41;2.28;;;1.45;;
10657;SDS011;5377;43.276;26.930;2023-09-18T13:15:09;3.03;;;2.72;;
10657;SDS011;5377;43.276;26.930;2023-09-18T13:17:39;3.15;;;1.58;;
10657;SDS011;5377;43.276;26.930;2023-09-18T13:20:10;2.10;;;1.80;;
10657;SDS011;5377;43.276;26.930;2023-09-18T13:22:39;4.03;;;1.73;;
10657;SDS011;5377;43.276;26.930;2023-09-18T13:25:07;6.25;;;2.10;;
10657;SDS011;5377;43.276;26.930;2023-09-18T13:27:36;3.03;;;1.77;;
10657;SDS011;5377;43.276;26.930;2023-09-18T13:30:03;3.42;;;1.67;;
10657;SDS011;5377;43.276;26.930;2023-09-18T13:32:36;2.47;;;1.63;;
10657;SDS011;5377;43.276;26.930;2023-09-18T13:35:05;3.55;;;2.00;;
10657;SDS011;5377;43.276;26.930;2023-09-18T13:37:33;2.20;;;1.98;;
10657;SDS011;5377;43.276;26.930;2023-09-18T13:40:00;9.55;;;2.78;;
10657;SDS011;5377;43.276;26.930;2023-09-18T13:42:28;2.55;;;2.33;;
10657;SDS011;5377;43.276;26.930;2023-09-18T13:44:56;3.80;;;2.00;;
10657;SDS011;5377;43.276;26.930;2023-09-18T13:47:25;2.78;;;2.00;;
10657;SDS011;5377;43.276;26.930;2023-09-18T13:49:52;2.53;;;1.70;;
10657;SDS011;5377;43.276;26.930;2023-09-18T13:52:23;3.90;;;2.38;;
10657;SDS011;5377;43.276;26.930;2023-09-18T13:54:50;3.00;;;1.90;;
10657;SDS011;5377;43.276;26.930;2023-09-18T13:57:17;1.85;;;1.60;;
10657;SDS011;5377;43.276;26.930;2023-09-18T13:59:44;2.65;;;1.85;;
10657;SDS011;5377;43.276;26.930;2023-09-18T14:02:12;3.72;;;2.20;;
10657;SDS011;5377;43.276;26.930;2023-09-18T14:04:39;2.25;;;1.73;;
10657;SDS011;5377;43.276;26.930;2023-09-18T14:07:06;2.65;;;2.05;;
10657;SDS011;5377;43.276;26.930;2023-09-18T14:09:35;8.07;;;2.30;;
10657;SDS011;5377;43.276;26.930;2023-09-18T14:12:02;3.08;;;2.15;;
10657;SDS011;5377;43.276;26.930;2023-09-18T14:14:30;4.10;;;2.13;;
10657;SDS011;5377;43.276;26.930;2023-09-18T14:16:57;2.60;;;2.15;;
10657;SDS011;5377;43.276;26.930;2023-09-18T14:19:24;2.47;;;2.05;;
10657;SDS011;5377;43.276;26.930;2023-09-18T14:21:51;4.40;;;2.13;;
10657;SDS011;5377;43.276;26.930;2023-09-18T14:24:18;5.10;;;2.70;;
10657;SDS011;5377;43.276;26.930;2023-09-18T14:26:51;4.55;;;2.10;;
10657;SDS011;5377;43.276;26.930;2023-09-18T14:29:17;7.25;;;1.83;;
10657;SDS011;5377;43.276;26.930;2023-09-18T14:31:44;5.72;;;2.53;;
10657;SDS011;5377;43.276;26.930;2023-09-18T14:34:11;5.43;;;2.08;;
10657;SDS011;5377;43.276;26.930;2023-09-18T14:36:39;3.38;;;2.20;;
10657;SDS011;5377;43.276;26.930;2023-09-18T14:39:06;4.57;;;2.50;;
10657;SDS011;5377;43.276;26.930;2023-09-18T14:41:33;4.32;;;2.17;;
10657;SDS011;5377;43.276;26.930;2023-09-18T14:44:02;3.72;;;2.10;;
10657;SDS011;5377;43.276;26.930;2023-09-18T14:46:29;5.63;;;2.80;;
10657;SDS011;5377;43.276;26.930;2023-09-18T14:48:58;6.20;;;2.70;;
10657;SDS011;5377;43.276;26.930;2023-09-18T14:51:25;2.72;;;2.53;;
10657;SDS011;5377;43.276;26.930;2023-09-18T14:53:53;8.65;;;2.40;;
10657;SDS011;5377;43.276;26.930;2023-09-18T14:56:19;2.65;;;2.45;;
10657;SDS011;5377;43.276;26.930;2023-09-18T14:58:46;3.67;;;2.53;;
10657;SDS011;5377;43.276;26.930;2023-09-18T15:01:14;3.20;;;2.25;;